Time;durP1;ratioP1;P1;durP2;ratioP2;P2;SDS_P1;SDS_P2;PMS_P1;PMS_P2;Temp;Humidity;BMP_temperature;BMP_pressure;BME280_temperature;BME280_humidity;BME280_pressure;Samples;Min_cycle;Max_cycle;Signal;HPM_P1;HPM_P2
2020/12/23 00:00:36;;;;;;;55.90;2.53;;;13.40;17.40;;;;;;5092871;28;20569;-70
2020/12/23 00:03:02;;;;;;;56.00;2.60;;;13.50;15.00;;;;;;5093611;28;20458;-70
2020/12/23 00:05:28;;;;;;;55.90;2.57;;;13.50;14.50;;;;;;5093910;28;20443;-71
2020/12/23 00:07:54;;;;;;;56.10;2.70;;;13.50;12.30;;;;;;5093958;28;20440;-71
2020/12/23 00:10:22;;;;;;;55.83;2.40;;;13.50;12.70;;;;;;5093700;28;20844;-70
2020/12/23 00:12:48;;;;;;;55.70;2.20;;;13.50;12.00;;;;;;5093838;28;20531;-71
2020/12/23 00:15:14;;;;;;;55.77;2.20;;;13.50;10.00;;;;;;5093474;28;20498;-70
2020/12/23 00:17:41;;;;;;;55.80;2.47;;;13.50;6.10;;;;;;5094275;28;20446;-71
2020/12/23 00:20:07;;;;;;;56.20;2.70;;;13.50;5.60;;;;;;5094504;28;20470;-71
2020/12/23 00:22:34;;;;;;;55.70;2.30;;;13.50;8.20;;;;;;5093164;28;20485;-70
2020/12/23 00:25:00;;;;;;;56.67;2.73;;;13.40;8.90;;;;;;5093563;28;20507;-70
2020/12/23 00:27:27;;;;;;;55.90;2.77;;;13.40;7.30;;;;;;5093691;28;20444;-71
2020/12/23 00:29:54;;;;;;;58.97;2.70;;;13.50;8.00;;;;;;5092964;28;20466;-70
2020/12/23 00:32:20;;;;;;;56.37;2.53;;;13.40;8.60;;;;;;5093041;28;20448;-70
2020/12/23 00:34:47;;;;;;;55.77;2.43;;;13.40;8.70;;;;;;5093264;28;20820;-69
2020/12/23 00:37:14;;;;;;;56.17;2.60;;;13.50;8.30;;;;;;5093532;28;20532;-70
2020/12/23 00:39:40;;;;;;;55.67;2.50;;;13.60;6.60;;;;;;5093061;28;20471;-70
2020/12/23 00:42:06;;;;;;;55.70;2.40;;;13.70;4.80;;;;;;5092316;28;20489;-71
2020/12/23 00:44:34;;;;;;;55.67;2.50;;;13.70;2.00;;;;;;5092815;28;20884;-70
2020/12/23 00:47:00;;;;;;;56.53;2.93;;;13.80;1.00;;;;;;5093323;28;20483;-69
2020/12/23 00:49:26;;;;;;;55.87;2.20;;;13.80;1.00;;;;;;5092448;28;20479;-70
2020/12/23 00:51:53;;;;;;;55.90;2.60;;;13.80;1.00;;;;;;5076687;22;20513;-70
2020/12/23 00:54:19;;;;;;;55.77;2.40;;;13.80;1.00;;;;;;5053066;28;20441;-70
2020/12/23 00:56:45;;;;;;;56.10;2.60;;;13.80;1.00;;;;;;5052673;28;20448;-70
2020/12/23 00:59:12;;;;;;;56.20;2.37;;;13.80;1.00;;;;;;5052395;28;20459;-70
2020/12/23 01:01:39;;;;;;;55.90;2.40;;;13.80;1.00;;;;;;5052208;28;20493;-70
2020/12/23 01:04:05;;;;;;;55.80;2.53;;;13.80;1.00;;;;;;5052475;28;20455;-70
2020/12/23 01:06:32;;;;;;;55.97;2.53;;;13.90;1.00;;;;;;5052464;28;20448;-70
2020/12/23 01:08:58;;;;;;;55.60;2.40;;;13.80;1.00;;;;;;5052555;28;20459;-70
2020/12/23 01:11:24;;;;;;;56.00;2.40;;;13.80;1.00;;;;;;5051625;28;20493;-70
2020/12/23 01:13:51;;;;;;;56.27;2.67;;;13.80;1.00;;;;;;5052559;28;20619;-70
2020/12/23 01:16:21;;;;;;;55.87;2.33;;;13.80;1.00;;;;;;5052427;28;20455;-70
2020/12/23 01:18:48;;;;;;;56.97;2.50;;;13.80;1.00;;;;;;5052108;28;20460;-70
2020/12/23 01:21:15;;;;;;;55.90;2.43;;;13.80;1.00;;;;;;5051693;28;20518;-70
2020/12/23 01:23:42;;;;;;;56.37;2.60;;;13.80;1.00;;;;;;5052229;28;20444;-70
2020/12/23 01:26:09;;;;;;;55.67;2.50;;;13.80;1.00;;;;;;5051926;28;20454;-70
2020/12/23 01:28:35;;;;;;;56.30;2.50;;;13.80;1.00;;;;;;5051978;28;20746;-70
2020/12/23 01:31:01;;;;;;;55.87;2.50;;;13.80;1.00;;;;;;5051997;28;20934;-70
2020/12/23 01:33:27;;;;;;;55.50;2.13;;;13.80;1.00;;;;;;5051530;28;20451;-70
2020/12/23 01:35:55;;;;;;;56.97;2.57;;;13.80;1.00;;;;;;5051922;28;20951;-70
2020/12/23 01:38:21;;;;;;;56.50;2.30;;;13.80;1.00;;;;;;5051711;28;20459;-70
2020/12/23 01:40:47;;;;;;;56.40;2.50;;;13.80;1.00;;;;;;5051510;28;20990;-70
2020/12/23 01:43:14;;;;;;;55.60;2.20;;;13.80;1.00;;;;;;5051523;28;20456;-70
2020/12/23 01:45:40;;;;;;;55.90;2.40;;;13.80;1.00;;;;;;5051714;28;20448;-70
2020/12/23 01:48:15;;;;;;;56.10;2.50;;;13.80;1.00;;;;;;5051541;28;20531;-70
2020/12/23 01:50:41;;;;;;;60.93;2.93;;;13.80;1.00;;;;;;5051561;28;20842;-70
2020/12/23 01:53:09;;;;;;;56.63;2.40;;;13.80;1.00;;;;;;5051334;28;20708;-70
2020/12/23 01:55:35;;;;;;;55.40;2.00;;;13.80;1.00;;;;;;5051645;28;20479;-70
2020/12/23 01:58:02;;;;;;;56.10;2.70;;;13.80;1.00;;;;;;5051773;28;20874;-70
2020/12/23 02:00:28;;;;;;;56.37;2.20;;;13.90;1.00;;;;;;5051350;28;20460;-70
2020/12/23 02:02:56;;;;;;;56.10;2.17;;;13.90;1.00;;;;;;5051154;28;20448;-70
2020/12/23 02:05:22;;;;;;;55.63;2.17;;;13.90;1.00;;;;;;5051374;28;20449;-70
2020/12/23 02:07:50;;;;;;;55.07;2.10;;;13.90;1.00;;;;;;5051296;28;20939;-70
2020/12/23 02:10:17;;;;;;;56.20;2.73;;;13.90;1.00;;;;;;5051341;28;20456;-70
2020/12/23 02:12:44;;;;;;;55.57;2.13;;;13.90;1.00;;;;;;5051031;28;20531;-70
2020/12/23 02:15:12;;;;;;;55.33;2.17;;;13.90;1.00;;;;;;5051391;28;20890;-70
2020/12/23 02:17:39;;;;;;;55.17;2.07;;;13.90;1.00;;;;;;5051115;28;20452;-70
2020/12/23 02:20:08;;;;;;;55.57;2.37;;;13.90;1.00;;;;;;5047664;28;20480;-70
2020/12/23 02:22:36;;;;;;;55.90;2.33;;;14.00;1.00;;;;;;5050640;28;20575;-70
2020/12/23 02:25:04;;;;;;;55.90;2.30;;;14.00;1.00;;;;;;5051442;28;20459;-70
2020/12/23 02:27:31;;;;;;;55.60;2.20;;;14.00;1.00;;;;;;5051307;28;21079;-70
2020/12/23 02:29:58;;;;;;;55.60;2.00;;;14.10;1.00;;;;;;5051125;28;20495;-70
2020/12/23 02:32:25;;;;;;;55.90;2.00;;;14.00;1.00;;;;;;5050707;28;20472;-70
2020/12/23 02:34:53;;;;;;;55.57;2.20;;;14.10;1.00;;;;;;5051505;28;20455;-70
2020/12/23 02:37:20;;;;;;;55.40;2.10;;;14.10;1.00;;;;;;5051062;28;20444;-70
2020/12/23 02:39:50;;;;;;;57.23;2.50;;;14.10;1.00;;;;;;5051080;28;21015;-70
2020/12/23 02:42:17;;;;;;;55.77;2.37;;;14.10;1.00;;;;;;5050580;28;20571;-70
2020/12/23 02:44:43;;;;;;;56.10;2.40;;;14.20;1.00;;;;;;5050932;28;20962;-70
2020/12/23 02:47:11;;;;;;;55.57;2.27;;;14.20;1.00;;;;;;5051217;28;20571;-70
2020/12/23 02:49:38;;;;;;;55.77;2.13;;;14.30;1.00;;;;;;5051019;28;20460;-70
2020/12/23 02:52:05;;;;;;;55.60;2.30;;;14.40;1.00;;;;;;5050659;28;20545;-70
2020/12/23 02:54:31;;;;;;;55.30;1.90;;;14.40;1.00;;;;;;5050761;28;20449;-70
2020/12/23 02:56:59;;;;;;;55.50;2.07;;;14.40;1.00;;;;;;5051003;28;20460;-70
2020/12/23 02:59:25;;;;;;;55.50;2.40;;;14.50;1.00;;;;;;5050637;28;20452;-70
2020/12/23 03:01:51;;;;;;;56.10;2.20;;;14.50;1.00;;;;;;5050750;28;20488;-70
2020/12/23 03:04:18;;;;;;;55.33;2.17;;;14.50;1.00;;;;;;5050955;28;20448;-70
2020/12/23 03:06:44;;;;;;;55.80;2.20;;;14.50;1.00;;;;;;5051102;28;20535;-70
2020/12/23 03:09:12;;;;;;;55.67;2.17;;;14.50;1.00;;;;;;5050725;28;20455;-70
2020/12/23 03:11:38;;;;;;;55.47;2.20;;;14.50;1.00;;;;;;5050388;28;20502;-70
2020/12/23 03:14:06;;;;;;;56.10;2.20;;;14.50;1.00;;;;;;5050817;28;20951;-70
2020/12/23 03:16:32;;;;;;;55.97;2.20;;;14.50;1.00;;;;;;5050844;28;20454;-70
2020/12/23 03:18:59;;;;;;;55.90;2.30;;;14.50;1.00;;;;;;5050893;28;20444;-70
2020/12/23 03:21:26;;;;;;;55.80;2.20;;;14.50;1.00;;;;;;5050265;28;20491;-70
2020/12/23 03:23:52;;;;;;;55.50;2.20;;;14.60;1.00;;;;;;5050840;28;20450;-70
2020/12/23 03:26:19;;;;;;;55.70;2.30;;;14.70;1.00;;;;;;5050487;28;20460;-70
2020/12/23 03:28:45;;;;;;;55.53;2.00;;;14.70;1.00;;;;;;5050917;28;20867;-70
2020/12/23 03:31:12;;;;;;;56.27;2.23;;;14.70;1.00;;;;;;5050622;28;20862;-70
2020/12/23 03:33:39;;;;;;;55.70;2.30;;;14.70;1.00;;;;;;5050293;28;20962;-70
2020/12/23 03:36:06;;;;;;;55.47;2.17;;;14.70;1.00;;;;;;5054183;28;20485;-70
2020/12/23 03:38:32;;;;;;;55.57;2.00;;;14.70;1.00;;;;;;5054130;28;20824;-70
2020/12/23 03:40:58;;;;;;;55.97;2.27;;;14.70;1.00;;;;;;5053712;28;20483;-70
2020/12/23 03:43:25;;;;;;;55.97;2.30;;;14.80;1.00;;;;;;5053907;28;20475;-70
2020/12/23 03:45:51;;;;;;;56.07;2.17;;;14.80;1.00;;;;;;5054171;28;20463;-70
2020/12/23 03:48:19;;;;;;;55.57;2.13;;;14.80;1.00;;;;;;5054013;28;20457;-70
2020/12/23 03:50:45;;;;;;;56.50;2.40;;;14.80;1.00;;;;;;5053668;28;20621;-70
2020/12/23 03:53:12;;;;;;;56.47;2.20;;;14.70;1.00;;;;;;5053745;28;20456;-70
2020/12/23 03:55:38;;;;;;;56.47;2.20;;;14.80;1.00;;;;;;5053578;28;20943;-70
2020/12/23 03:58:05;;;;;;;55.80;2.30;;;14.80;1.00;;;;;;5053812;28;20452;-70
2020/12/23 04:00:31;;;;;;;55.60;2.03;;;14.80;1.00;;;;;;5053502;28;20540;-70
2020/12/23 04:02:58;;;;;;;55.67;2.27;;;14.80;1.00;;;;;;5053523;28;20476;-70
2020/12/23 04:05:25;;;;;;;56.20;2.40;;;14.80;1.00;;;;;;5053617;28;20451;-70
2020/12/23 04:07:51;;;;;;;55.97;2.20;;;14.80;1.00;;;;;;5054115;28;20452;-70
2020/12/23 04:10:18;;;;;;;55.80;2.20;;;14.70;1.00;;;;;;5053156;28;20551;-70
2020/12/23 04:12:44;;;;;;;55.37;2.37;;;14.70;1.00;;;;;;5053444;28;20445;-70
2020/12/23 04:15:11;;;;;;;55.70;2.20;;;14.70;1.00;;;;;;5053531;28;20449;-70
2020/12/23 04:17:38;;;;;;;55.97;2.40;;;14.60;1.00;;;;;;5053383;28;20450;-70
2020/12/23 04:20:06;;;;;;;55.30;1.97;;;14.60;1.00;;;;;;5053597;28;20857;-70
2020/12/23 04:22:34;;;;;;;55.47;1.97;;;14.60;1.00;;;;;;5052796;28;20567;-70
2020/12/23 04:25:02;;;;;;;57.07;2.23;;;14.60;1.00;;;;;;5053442;28;20445;-70
2020/12/23 04:27:29;;;;;;;55.70;2.30;;;14.60;1.00;;;;;;5053497;28;20453;-70
2020/12/23 04:29:55;;;;;;;55.57;2.13;;;14.60;1.00;;;;;;5053181;28;20450;-70
2020/12/23 04:32:21;;;;;;;55.67;2.23;;;14.50;1.00;;;;;;5052828;28;21037;-70
2020/12/23 04:34:48;;;;;;;55.90;2.03;;;14.40;1.00;;;;;;5053254;28;20542;-70
2020/12/23 04:37:14;;;;;;;55.70;2.20;;;14.20;1.00;;;;;;5052887;28;20965;-70
2020/12/23 04:39:42;;;;;;;55.70;2.10;;;14.10;1.00;;;;;;5053118;28;20531;-70
2020/12/23 04:42:08;;;;;;;56.20;2.20;;;14.00;1.00;;;;;;5052768;28;20525;-70
2020/12/23 04:44:35;;;;;;;55.80;2.27;;;14.00;1.00;;;;;;5052571;28;20448;-70
2020/12/23 04:47:03;;;;;;;56.33;2.30;;;13.90;1.00;;;;;;5052843;28;20492;-70
2020/12/23 04:49:36;;;;;;;56.07;2.53;;;13.80;1.00;;;;;;5052606;28;20491;-70
2020/12/23 04:52:05;;;;;;;55.60;2.20;;;13.80;1.00;;;;;;5052550;28;20485;-70
2020/12/23 04:54:32;;;;;;;56.40;2.47;;;13.70;1.00;;;;;;5052755;28;20451;-70
2020/12/23 04:56:59;;;;;;;56.07;2.50;;;13.70;1.00;;;;;;5052776;28;20501;-70
2020/12/23 04:59:27;;;;;;;56.30;2.50;;;13.60;1.00;;;;;;5052487;28;20487;-70
2020/12/23 05:01:53;;;;;;;56.50;2.47;;;13.60;1.00;;;;;;5052260;28;20526;-70
2020/12/23 05:04:19;;;;;;;55.57;2.23;;;13.50;1.00;;;;;;5052259;28;20448;-70
2020/12/23 05:06:47;;;;;;;56.57;2.73;;;13.50;1.00;;;;;;5052592;28;20919;-70
2020/12/23 05:09:14;;;;;;;55.70;2.50;;;13.50;1.00;;;;;;5052417;28;20941;-70
2020/12/23 05:11:41;;;;;;;56.40;2.50;;;13.50;1.00;;;;;;5052055;28;20468;-70
2020/12/23 05:14:10;;;;;;;55.80;2.40;;;13.50;1.00;;;;;;5052831;28;20455;-70
2020/12/23 05:16:36;;;;;;;55.63;2.43;;;13.50;1.00;;;;;;5052138;28;20448;-70
2020/12/23 05:19:03;;;;;;;56.17;2.60;;;13.50;1.00;;;;;;5052392;28;20507;-69
2020/12/23 05:21:30;;;;;;;56.40;2.40;;;13.50;1.00;;;;;;5052177;28;20488;-70
2020/12/23 05:23:57;;;;;;;55.60;2.20;;;13.50;1.00;;;;;;5052160;28;20455;-70
2020/12/23 05:26:25;;;;;;;55.77;2.37;;;13.50;1.00;;;;;;5052175;28;20447;-71
2020/12/23 05:28:52;;;;;;;55.90;2.47;;;13.60;1.00;;;;;;5052070;28;20452;-70
2020/12/23 05:31:20;;;;;;;55.53;2.30;;;13.60;1.00;;;;;;5051703;28;20500;-70
2020/12/23 05:33:48;;;;;;;55.60;2.40;;;13.60;1.00;;;;;;5051893;28;20814;-70
2020/12/23 05:36:16;;;;;;;55.47;2.23;;;13.60;1.00;;;;;;5052015;28;20452;-70
2020/12/23 05:38:43;;;;;;;55.20;2.10;;;13.50;1.00;;;;;;5051897;28;20441;-70
2020/12/23 05:41:11;;;;;;;56.63;2.43;;;13.50;1.00;;;;;;5051638;28;20986;-70
2020/12/23 05:43:38;;;;;;;56.40;2.50;;;13.50;1.00;;;;;;5051535;28;20857;-70
2020/12/23 05:46:06;;;;;;;55.93;2.40;;;13.50;1.00;;;;;;5051656;28;20466;-70
2020/12/23 05:48:35;;;;;;;56.60;2.57;;;13.50;1.00;;;;;;5051863;28;20456;-70
2020/12/23 05:51:02;;;;;;;55.67;2.30;;;13.50;1.00;;;;;;5051442;28;20537;-70
2020/12/23 05:53:31;;;;;;;55.50;2.10;;;13.50;1.00;;;;;;5051459;28;20448;-70
2020/12/23 05:55:57;;;;;;;56.40;2.33;;;13.50;1.00;;;;;;5051368;28;21013;-70
2020/12/23 05:58:25;;;;;;;55.80;2.40;;;13.50;1.00;;;;;;5050671;28;20459;-70
2020/12/23 06:00:53;;;;;;;56.03;2.60;;;13.50;1.00;;;;;;5051446;28;20464;-70
2020/12/23 06:03:22;;;;;;;55.50;2.30;;;13.50;1.00;;;;;;5051636;28;20449;-70
2020/12/23 06:05:59;;;;;;;55.60;2.40;;;13.50;1.00;;;;;;5051207;28;20458;-70
2020/12/23 06:08:31;;;;;;;56.43;2.40;;;13.50;1.00;;;;;;5051585;28;20440;-70
2020/12/23 06:11:27;;;;;;;56.27;2.50;;;13.50;1.00;;;;;;5051079;28;20476;-70
2020/12/23 06:14:14;;;;;;;55.97;2.47;;;13.60;1.00;;;;;;5042220;28;20463;-70
2020/12/23 06:16:42;;;;;;;56.10;2.30;;;13.60;1.00;;;;;;5051641;28;20448;-70
2020/12/23 06:19:10;;;;;;;55.63;2.60;;;13.60;1.00;;;;;;5051313;28;20494;-70
2020/12/23 06:21:38;;;;;;;55.73;2.40;;;13.70;1.00;;;;;;5051281;28;20530;-70
2020/12/23 06:24:07;;;;;;;56.03;2.43;;;13.70;1.00;;;;;;5051283;28;20466;-70
2020/12/23 06:26:35;;;;;;;55.90;2.40;;;13.70;1.00;;;;;;5051127;28;20455;-70
2020/12/23 06:29:03;;;;;;;55.87;2.30;;;13.70;1.00;;;;;;5051252;28;20546;-70
2020/12/23 06:31:31;;;;;;;55.67;2.50;;;13.80;1.00;;;;;;5051135;28;20539;-70
2020/12/23 06:33:59;;;;;;;56.23;2.67;;;13.80;1.00;;;;;;5050660;28;20539;-70
2020/12/23 06:36:33;;;;;;;56.60;2.67;;;13.80;1.00;;;;;;5051218;28;20453;-70
2020/12/23 06:39:31;;;;;;;55.73;2.57;;;13.80;1.00;;;;;;5051208;28;20474;-70
2020/12/23 06:42:22;;;;;;;55.77;2.60;;;13.80;1.00;;;;;;5008703;28;20995;-70
2020/12/23 06:44:57;;;;;;;56.50;2.70;;;13.80;1.00;;;;;;5048695;28;20464;-71
2020/12/23 06:47:25;;;;;;;55.60;2.47;;;13.70;1.00;;;;;;5051369;28;20930;-71
2020/12/23 06:49:52;;;;;;;55.80;2.53;;;13.70;1.00;;;;;;5050840;28;20495;-70
2020/12/23 06:52:32;;;;;;;58.50;2.47;;;13.80;1.00;;;;;;5076112;22;20514;-69
2020/12/23 06:55:01;;;;;;;56.60;2.83;;;13.70;1.00;;;;;;5030548;28;20465;-69
2020/12/23 06:57:55;;;;;;;55.80;2.70;;;13.70;1.00;;;;;;5031029;28;20876;-69
2020/12/23 07:00:41;;;;;;;56.13;2.60;;;13.60;1.00;;;;;;5030939;28;20959;-68
2020/12/23 07:03:09;;;;;;;56.00;2.63;;;13.50;1.00;;;;;;5030533;28;20864;-68
2020/12/23 07:05:46;;;;;;;55.70;2.60;;;13.50;1.00;;;;;;5031043;28;20449;-69
2020/12/23 07:08:17;;;;;;;56.10;2.20;;;13.50;1.00;;;;;;5032067;28;20449;-69
2020/12/23 07:10:53;;;;;;;56.57;2.17;;;13.40;1.00;;;;;;5036008;28;20468;-68
2020/12/23 07:13:21;;;;;;;55.90;2.63;;;13.40;1.00;;;;;;5039101;28;20475;-69
2020/12/23 07:15:56;;;;;;;55.80;2.50;;;13.30;1.00;;;;;;5034811;28;20491;-69
2020/12/23 07:18:27;;;;;;;55.30;2.30;;;13.30;1.00;;;;;;5035122;28;20448;-69
2020/12/23 07:21:03;;;;;;;56.47;2.53;;;13.20;1.00;;;;;;5034539;28;20452;-69
2020/12/23 07:23:30;;;;;;;55.90;2.43;;;13.20;1.00;;;;;;5034268;28;20469;-69
2020/12/23 07:25:58;;;;;;;55.90;2.50;;;13.20;1.00;;;;;;5034686;28;21257;-69
2020/12/23 07:28:28;;;;;;;55.83;2.37;;;13.20;1.00;;;;;;5034610;28;20456;-69
2020/12/23 07:30:55;;;;;;;55.60;2.30;;;13.20;1.00;;;;;;5034298;28;20457;-69
2020/12/23 07:33:22;;;;;;;55.77;2.60;;;13.20;1.00;;;;;;5034045;28;20836;-69
2020/12/23 07:35:49;;;;;;;56.00;2.50;;;13.20;1.00;;;;;;5034567;28;20532;-69
2020/12/23 07:38:17;;;;;;;55.80;2.40;;;13.20;1.00;;;;;;5034192;28;20449;-69
2020/12/23 07:40:44;;;;;;;56.57;2.50;;;13.20;1.00;;;;;;5034285;28;20453;-69
2020/12/23 07:43:13;;;;;;;55.80;2.60;;;13.20;1.00;;;;;;5033696;28;21010;-69
2020/12/23 07:45:40;;;;;;;55.87;2.50;;;13.30;1.00;;;;;;5034206;28;20830;-69
2020/12/23 07:48:08;;;;;;;55.60;2.60;;;13.40;1.00;;;;;;5034188;28;20990;-69
2020/12/23 07:50:36;;;;;;;55.97;2.53;;;13.40;1.00;;;;;;5033107;28;20516;-69
2020/12/23 07:53:16;;;;;;;56.20;2.60;;;13.50;1.00;;;;;;5032954;28;20481;-69
2020/12/23 07:55:44;;;;;;;56.20;2.80;;;13.50;1.00;;;;;;5033917;28;20544;-68
2020/12/23 07:58:12;;;;;;;55.80;2.60;;;13.60;1.00;;;;;;5033698;28;20486;-69
2020/12/23 08:00:39;;;;;;;55.87;2.57;;;13.60;1.00;;;;;;5033633;28;20504;-69
2020/12/23 08:03:06;;;;;;;55.60;2.60;;;13.60;1.00;;;;;;5033324;28;20576;-69
2020/12/23 08:05:33;;;;;;;55.87;2.80;;;13.70;1.00;;;;;;5033460;28;20532;-69
2020/12/23 08:07:59;;;;;;;56.30;2.50;;;13.80;1.00;;;;;;5033900;28;20448;-69
2020/12/23 08:10:26;;;;;;;55.90;2.50;;;13.80;1.00;;;;;;5033776;28;20449;-69
2020/12/23 08:12:54;;;;;;;55.27;2.37;;;14.00;1.00;;;;;;5033251;28;21000;-69
2020/12/23 08:15:22;;;;;;;55.90;2.50;;;14.00;1.00;;;;;;5033628;28;20555;-70
2020/12/23 08:17:58;;;;;;;56.63;2.47;;;14.00;1.00;;;;;;5033386;28;20488;-70
2020/12/23 08:20:25;;;;;;;57.20;2.90;;;14.10;1.00;;;;;;5032808;28;20477;-70
2020/12/23 08:22:51;;;;;;;55.70;2.20;;;14.10;1.00;;;;;;5033013;28;20485;-70
2020/12/23 08:25:20;;;;;;;55.53;2.20;;;14.10;1.00;;;;;;5033751;28;20936;-69
2020/12/23 08:27:47;;;;;;;56.07;2.10;;;14.20;1.00;;;;;;5033306;28;20481;-69
2020/12/23 08:30:17;;;;;;;55.70;2.10;;;14.20;1.00;;;;;;5033227;28;20458;-68
2020/12/23 08:32:47;;;;;;;56.10;2.60;;;14.30;1.00;;;;;;5032696;28;20837;-68
2020/12/23 08:35:14;;;;;;;56.10;2.50;;;14.30;1.00;;;;;;5033367;28;20452;-69
2020/12/23 08:37:41;;;;;;;55.37;2.10;;;14.40;1.00;;;;;;5032863;28;20503;-68
2020/12/23 08:40:08;;;;;;;55.90;2.30;;;14.40;1.00;;;;;;5033151;28;20478;-70
2020/12/23 08:42:35;;;;;;;56.60;2.70;;;14.40;1.00;;;;;;5032555;28;20489;-69
2020/12/23 08:45:02;;;;;;;55.67;2.30;;;14.50;1.00;;;;;;5032725;28;20450;-69
2020/12/23 08:47:32;;;;;;;55.83;2.23;;;14.50;1.00;;;;;;5033293;28;20446;-69
2020/12/23 08:50:01;;;;;;;56.27;2.50;;;14.50;1.00;;;;;;5032859;28;20935;-69
2020/12/23 08:52:27;;;;;;;56.30;2.30;;;14.50;1.00;;;;;;5032656;28;20477;-68
2020/12/23 08:54:54;;;;;;;55.60;2.07;;;14.60;1.00;;;;;;5032764;28;20455;-69
2020/12/23 08:57:28;;;;;;;56.10;2.33;;;14.60;1.00;;;;;;5033266;28;20450;-69
2020/12/23 08:59:55;;;;;;;56.30;2.70;;;14.70;1.00;;;;;;5032415;28;20937;-69
2020/12/23 09:02:22;;;;;;;56.67;2.80;;;14.70;1.00;;;;;;5032636;28;20551;-69
2020/12/23 09:04:49;;;;;;;55.87;2.43;;;14.70;1.00;;;;;;5032459;28;20481;-69
2020/12/23 09:07:22;;;;;;;56.37;2.53;;;14.70;1.00;;;;;;5032658;28;20447;-69
2020/12/23 09:09:49;;;;;;;58.10;2.70;;;14.80;1.00;;;;;;5032440;28;20476;-69
2020/12/23 09:12:22;;;;;;;57.27;2.63;;;14.80;1.00;;;;;;5032384;28;20446;-69
2020/12/23 09:14:49;;;;;;;55.90;2.40;;;14.80;1.00;;;;;;5033600;28;20525;-69
2020/12/23 09:17:23;;;;;;;55.87;2.33;;;14.80;1.00;;;;;;5032457;28;20520;-69
2020/12/23 09:19:54;;;;;;;55.53;2.10;;;14.90;1.00;;;;;;5032477;28;20493;-69
2020/12/23 09:22:30;;;;;;;55.63;2.33;;;14.90;1.00;;;;;;5031851;28;20480;-69
2020/12/23 09:25:16;;;;;;;55.80;2.40;;;14.90;1.00;;;;;;5032702;28;20619;-69
2020/12/23 09:27:44;;;;;;;59.30;2.80;;;14.90;1.00;;;;;;5032664;28;20457;-69
2020/12/23 09:30:11;;;;;;;55.63;2.47;;;14.90;1.00;;;;;;5032167;28;20457;-69
2020/12/23 09:32:51;;;;;;;56.00;2.37;;;14.90;1.00;;;;;;5031630;28;20501;-70
2020/12/23 09:35:19;;;;;;;55.57;2.40;;;14.90;1.00;;;;;;5031927;28;20917;-69
2020/12/23 09:37:48;;;;;;;56.40;3.13;;;14.90;1.00;;;;;;5031853;28;20481;-69
2020/12/23 09:40:15;;;;;;;56.57;2.87;;;14.90;1.00;;;;;;5032066;28;20452;-69
2020/12/23 09:42:41;;;;;;;56.57;3.07;;;14.90;1.00;;;;;;5031362;28;20521;-69
2020/12/23 09:45:09;;;;;;;56.23;2.60;;;14.90;1.00;;;;;;5031950;28;20482;-69
2020/12/23 09:47:41;;;;;;;56.63;2.70;;;14.90;1.00;;;;;;5031649;28;20452;-70
2020/12/23 09:50:07;;;;;;;55.57;2.33;;;14.90;1.00;;;;;;5031965;28;20478;-69
2020/12/23 09:52:34;;;;;;;56.30;2.50;;;14.90;1.00;;;;;;5031559;28;20474;-69
2020/12/23 09:55:01;;;;;;;55.97;2.40;;;15.00;1.00;;;;;;5031559;28;20505;-69
2020/12/23 09:57:27;;;;;;;58.43;3.07;;;15.00;1.00;;;;;;5031762;28;20865;-69
2020/12/23 09:59:53;;;;;;;57.50;2.80;;;15.00;1.00;;;;;;5031434;28;20492;-70
2020/12/23 10:02:20;;;;;;;56.30;2.70;;;15.10;1.00;;;;;;5031235;28;20485;-69
2020/12/23 10:04:46;;;;;;;57.00;3.60;;;15.10;1.00;;;;;;5031654;28;20458;-68
2020/12/23 10:07:12;;;;;;;57.17;3.37;;;15.10;1.00;;;;;;5031502;28;20486;-69
2020/12/23 10:09:39;;;;;;;56.30;3.03;;;15.10;1.00;;;;;;5031410;28;20458;-69
2020/12/23 10:12:06;;;;;;;57.07;2.83;;;15.10;1.00;;;;;;5031313;28;20449;-69
2020/12/23 10:14:33;;;;;;;56.23;2.80;;;15.10;1.00;;;;;;5031397;28;20468;-69
2020/12/23 10:16:59;;;;;;;56.20;2.47;;;15.00;1.00;;;;;;5031316;28;20454;-69
2020/12/23 10:19:25;;;;;;;57.73;2.60;;;15.00;1.00;;;;;;5031384;28;20445;-69
2020/12/23 10:21:52;;;;;;;56.37;2.87;;;15.00;1.00;;;;;;5031516;28;20879;-68
2020/12/23 10:24:18;;;;;;;57.70;2.50;;;14.90;1.00;;;;;;5030925;28;21036;-69
2020/12/23 10:26:44;;;;;;;56.73;3.00;;;14.80;1.00;;;;;;5031320;28;20453;-69
2020/12/23 10:29:12;;;;;;;55.47;2.50;;;14.70;1.00;;;;;;5031119;28;20445;-68
2020/12/23 10:31:38;;;;;;;56.47;2.40;;;14.50;1.00;;;;;;5031534;28;20481;-68
2020/12/23 10:34:04;;;;;;;56.60;2.90;;;14.40;1.00;;;;;;5031114;28;20852;-69
2020/12/23 10:36:31;;;;;;;56.93;2.83;;;14.30;1.00;;;;;;5031176;28;20818;-69
2020/12/23 10:38:57;;;;;;;56.97;3.00;;;14.20;1.00;;;;;;5031395;28;20453;-68
2020/12/23 10:41:23;;;;;;;56.97;2.97;;;14.20;1.00;;;;;;5031169;28;20449;-69
2020/12/23 10:43:49;;;;;;;55.77;2.30;;;14.20;1.00;;;;;;5032669;28;20479;-69
2020/12/23 10:46:17;;;;;;;56.17;2.63;;;14.20;1.00;;;;;;5035522;28;20452;-68
2020/12/23 10:48:43;;;;;;;56.07;2.50;;;14.20;1.00;;;;;;5035335;28;20479;-69
2020/12/23 10:51:09;;;;;;;55.70;2.27;;;14.30;1.00;;;;;;5035207;28;20849;-69
2020/12/23 10:53:36;;;;;;;55.90;2.53;;;14.40;1.00;;;;;;5034629;28;20477;-69
2020/12/23 10:56:03;;;;;;;56.10;2.47;;;14.50;1.00;;;;;;5035125;28;20449;-68
2020/12/23 10:58:29;;;;;;;56.20;2.43;;;14.50;1.00;;;;;;5035254;28;20464;-68
2020/12/23 11:00:55;;;;;;;56.17;2.60;;;14.60;1.00;;;;;;5035137;28;20862;-69
2020/12/23 11:03:23;;;;;;;56.10;2.67;;;14.60;1.00;;;;;;5034907;28;20866;-69
2020/12/23 11:05:49;;;;;;;55.90;2.50;;;14.70;1.00;;;;;;5034935;28;20507;-68
2020/12/23 11:08:16;;;;;;;56.40;2.57;;;14.80;1.00;;;;;;5034955;28;20453;-69
2020/12/23 11:10:42;;;;;;;57.70;2.70;;;14.80;1.00;;;;;;5034787;28;20453;-68
2020/12/23 11:13:08;;;;;;;55.90;2.53;;;14.90;1.00;;;;;;5036277;28;20519;-69
2020/12/23 11:15:35;;;;;;;56.80;3.03;;;14.90;1.00;;;;;;5041510;28;20449;-69
2020/12/23 11:18:01;;;;;;;56.00;2.80;;;15.00;1.00;;;;;;5035285;28;20445;-69
2020/12/23 11:20:28;;;;;;;55.83;2.53;;;15.10;1.00;;;;;;5034603;28;20450;-69
2020/12/23 11:22:54;;;;;;;55.77;2.40;;;15.00;1.00;;;;;;5034456;28;20484;-69
2020/12/23 11:25:21;;;;;;;56.70;2.70;;;15.00;1.00;;;;;;5034535;28;20457;-68
2020/12/23 11:27:47;;;;;;;55.80;2.47;;;15.00;1.00;;;;;;5034330;28;20813;-68
2020/12/23 11:30:13;;;;;;;56.93;2.70;;;14.90;1.00;;;;;;5034237;28;20510;-68
2020/12/23 11:32:40;;;;;;;56.90;3.10;;;14.70;1.00;;;;;;5034184;28;20462;-68
2020/12/23 11:35:06;;;;;;;56.30;2.70;;;14.60;1.00;;;;;;5034103;28;20455;-69
2020/12/23 11:37:33;;;;;;;56.33;2.60;;;14.50;1.00;;;;;;5032823;28;20453;-68
2020/12/23 11:40:00;;;;;;;55.90;2.80;;;14.40;1.00;;;;;;5033616;28;20540;-69
2020/12/23 11:42:26;;;;;;;56.03;2.67;;;14.30;1.00;;;;;;5032283;28;20496;-70
2020/12/23 11:44:52;;;;;;;56.90;3.00;;;14.30;1.00;;;;;;5033792;28;20453;-69
2020/12/23 11:47:19;;;;;;;56.40;2.60;;;14.20;1.00;;;;;;5033810;28;20451;-68
2020/12/23 11:49:45;;;;;;;56.70;3.17;;;14.10;1.00;;;;;;5034377;28;20863;-69
2020/12/23 11:52:12;;;;;;;56.73;2.87;;;14.10;1.00;;;;;;5033413;28;20445;-68
2020/12/23 11:54:39;;;;;;;57.07;2.83;;;14.00;1.00;;;;;;5032420;28;20824;-69
2020/12/23 11:57:05;;;;;;;56.00;2.87;;;14.00;1.00;;;;;;5034199;28;20515;-68
2020/12/23 11:59:32;;;;;;;57.20;2.90;;;13.90;1.00;;;;;;5033924;28;20449;-68
2020/12/23 12:01:58;;;;;;;56.20;2.60;;;13.90;1.00;;;;;;5033825;28;20489;-68
2020/12/23 12:04:24;;;;;;;56.40;3.10;;;13.80;1.00;;;;;;5032777;28;20561;-68
2020/12/23 12:06:56;;;;;;;57.37;3.23;;;13.80;1.00;;;;;;5032198;28;20772;-68
2020/12/23 12:09:22;;;;;;;56.27;2.90;;;13.80;1.00;;;;;;5030299;28;20452;-68
2020/12/23 12:11:52;;;;;;;56.10;2.70;;;13.70;1.00;;;;;;5033382;28;20456;-68
2020/12/23 12:14:19;;;;;;;58.17;2.83;;;13.70;1.00;;;;;;5031815;28;20465;-68
2020/12/23 12:16:45;;;;;;;56.60;3.00;;;13.70;1.00;;;;;;5032816;28;20446;-68
2020/12/23 12:19:12;;;;;;;56.40;3.00;;;13.70;1.00;;;;;;5033374;28;20477;-68
2020/12/23 12:21:38;;;;;;;56.90;3.27;;;13.70;1.00;;;;;;5032804;28;20449;-68
2020/12/23 12:24:04;;;;;;;56.93;2.93;;;13.60;1.00;;;;;;5033155;28;20892;-68
2020/12/23 12:26:31;;;;;;;57.07;3.00;;;13.60;1.00;;;;;;5033506;28;20445;-68
2020/12/23 12:28:59;;;;;;;58.30;3.10;;;13.60;1.00;;;;;;5033326;28;20953;-69
2020/12/23 12:31:25;;;;;;;57.33;4.00;;;13.60;1.00;;;;;;5033188;28;20488;-68
2020/12/23 12:33:52;;;;;;;57.40;3.90;;;13.60;10.40;;;;;;5032993;28;20465;-69
2020/12/23 12:36:18;;;;;;;57.83;3.63;;;13.60;13.70;;;;;;5032885;28;20506;-69
2020/12/23 12:38:44;;;;;;;57.00;3.80;;;13.60;14.70;;;;;;5033168;28;20460;-68
2020/12/23 12:41:11;;;;;;;58.00;3.50;;;13.60;11.50;;;;;;5033222;28;20445;-68
2020/12/23 12:43:37;;;;;;;58.87;4.93;;;13.70;12.40;;;;;;5032803;28;20493;-68
2020/12/23 12:46:08;;;;;;;57.90;4.27;;;13.70;21.20;;;;;;5033042;28;20488;-68
2020/12/23 12:48:35;;;;;;;59.10;4.63;;;13.70;30.50;;;;;;5033368;28;20786;-69